nws-alerts: Checking more than four warning/county codes can delay the loading of your pages. You should use a cron job to get the data.

Nearby METAR Reports

 

KFCI - Richmond/Chester, Virginia, USA
Distance from station: ESE 7mi, 12km
Updated: Sat, 22-Feb-2020 12:56pm EST
Clear
Clear
 Wind from S
Wind: S 8 mph , 13 km/h
Temperature: 48°F , 9°C
Wind Chill: 44°F , 7°C
Dew Point: 14°F , -10°C
Humidity: 25%
Barometer: 30.37 inHg , 1028.4 hPa
Clouds: Clear
Visibility: 10 miles , 16 km
2020/02/22 17:56 KFCI 221756Z AUTO 18007KT 10SM CLR 09/M10 A3037 RMK AO2 SLP297 T00941100 10094 21078 58023
KPTB - Petersburg, Virginia, USA
Distance from station: SSE 19mi, 31km
Updated: Sat, 22-Feb-2020 1:15pm EST
Clear
Clear
 Wind from S
Wind: S 5 mph , 7 km/h
Temperature: 50°F , 10°C
Wind Chill: 48°F , 9°C
Dew Point: 18°F , -8°C
Humidity: 28%
Barometer: 30.37 inHg , 1028.4 hPa
Clouds: Clear
Visibility: 10 miles , 16 km
2020/02/22 18:15 KPTB 221815Z AUTO 19004KT 10SM CLR 10/M08 A3037 RMK AO2 T00951083
 
KRIC - Richmond, Virginia, USA
Distance from station: ENE 19mi, 31km
Updated: Sat, 22-Feb-2020 12:54pm EST
Few Clouds
Few Clouds
 Wind from S
Wind: S 6 mph , 9 km/h
Temperature: 50°F , 10°C
Wind Chill: 48°F , 9°C
Dew Point: 16°F , -9°C
Humidity: 25%
Barometer: 30.37 inHg , 1028.4 hPa
Clouds: Few Clouds
Visibility: 10 miles , 16 km
Cloud details: Few Clouds 30000 ft
2020/02/22 17:54 KRIC 221754Z 19005KT 10SM FEW300 10/M09 A3037 RMK AO2 SLP288 T01001089 10100 21061 58023 $
KOFP - Richmond/Hanover, Virginia, USA
Distance from station: NNE 22mi, 36km
Updated: Sat, 22-Feb-2020 12:54pm EST
Clear
Clear
 Wind from S
Wind: S 6 mph , 9 km/h
Temperature: 50°F , 10°C
Wind Chill: 48°F , 9°C
Dew Point: 12°F , -11°C
Humidity: 22%
Barometer: 30.37 inHg , 1028.4 hPa
Clouds: Clear
Visibility: 10 miles , 16 km
2020/02/22 17:54 KOFP 221754Z AUTO 18005KT 10SM CLR 10/M11 A3037 RMK AO2 SLP286 T01001106 10106 21067 58023
 
KW96 - Quinton, Virginia, USA
Distance from station: E 28mi, 46km
Updated: Sat, 22-Feb-2020 1:15pm EST
Clear
Clear
 Wind from SSW
Wind: SSW 6 mph , 9 km/h
Temperature: 48°F , 9°C
Wind Chill: 45°F , 7°C
Dew Point: 16°F , -9°C
Humidity: 27%
Barometer: 30.36 inHg , 1028.1 hPa
Clouds: Clear
Visibility: 10 miles , 16 km
2020/02/22 18:15 KW96 221815Z AUTO 20005KT 10SM CLR 09/M09 A3036 RMK AO1 T00921089
KBKT - Blackstone Army, Virginia, USA
Distance from station: SW 30mi, 48km
Updated: Sat, 22-Feb-2020 12:55pm EST
Clear
Clear
 Wind from SSW
Wind: SSW 8 mph , 13 km/h
Temperature: 50°F , 10°C
Wind Chill: 47°F , 8°C
Dew Point: 19°F , -7°C
Humidity: 30%
Barometer: 30.37 inHg , 1028.4 hPa
Clouds: Clear
Visibility: 10 miles , 16 km
2020/02/22 17:55 KBKT 221755Z AUTO 20007KT 10SM CLR 10/M07 A3037 RMK AO1 T00951072 10095 21065
 
KW81 - Crewe, Virginia, USA
Distance from station: SW 30mi, 49km
Updated: Sat, 22-Feb-2020 1:15pm EST
Clear
Clear
 Wind from SW
Wind: SW 5 mph , 7 km/h
Temperature: 50°F , 10°C
Wind Chill: 48°F , 9°C
Dew Point: 1°F , -17°C
Humidity: 13%
Barometer: 30.35 inHg , 1027.8 hPa
Clouds: Clear
Visibility: 10 miles , 16 km
2020/02/22 18:15 KW81 221815Z AUTO 22004KT 10SM CLR 10/M17 A3035 RMK AO1 T00991175
K7W4 - Bumpass, Virginia, USA
Distance from station: N 38mi, 61km
Updated: Sat, 22-Feb-2020 1:15pm EST
Clear
Clear
 Wind from SW
Wind: SW 7 mph , 11 km/h
Temperature: 52°F , 11°C
Dew Point: 3°F , -16°C
Humidity: 13%
Barometer: 30.34 inHg , 1027.4 hPa
Clouds: Clear
Visibility: 10 miles , 16 km
2020/02/22 18:15 K7W4 221815Z AUTO 22006KT 10SM CLR 11/M16 A3034 RMK AO1 T01061165
 
KFVX - Farmville, Virginia, USA
Distance from station: W 43mi, 69km
Updated: Sat, 22-Feb-2020 12:55pm EST
Clear
Clear
 Wind from SSW
Wind: SSW 5 mph , 7 km/h
Temperature: 52°F , 11°C
Dew Point: 12°F , -11°C
Humidity: 20%
Barometer: 30.34 inHg , 1027.4 hPa
Clouds: Clear
Visibility: 10 miles , 16 km
2020/02/22 17:55 KFVX 221755Z AUTO 21004KT 10SM CLR 11/M11 A3034 RMK AO2 T01071115 10109 21045
KW31 - Kenbridge, Virginia, USA
Distance from station: SW 43mi, 70km
Updated: Sat, 22-Feb-2020 1:15pm EST
Clear
Clear
 Wind from SSW
Wind: SSW 6 mph , 9 km/h
Temperature: 48°F , 9°C
Wind Chill: 45°F , 7°C
Dew Point: 18°F , -8°C
Humidity: 29%
Barometer: 30.36 inHg , 1028.1 hPa
Clouds: Clear
Visibility: 10 miles , 16 km
2020/02/22 18:15 KW31 221815Z AUTO 21005KT 10SM CLR 09/M08 A3036 RMK AO1 T00931078
 
KLKU - Louisa, Virginia, USA
Distance from station: NNW 44mi, 72km
Updated: Sat, 22-Feb-2020 12:55pm EST
Clear
Clear
 Wind from WSW
Wind: WSW 8 mph , 13 km/h
Temperature: 50°F , 10°C
Wind Chill: 47°F , 8°C
Dew Point: 7°F , -14°C
Humidity: 17%
Barometer: 30.38 inHg , 1028.8 hPa
Clouds: Clear
Visibility: 10 miles , 16 km
2020/02/22 17:55 KLKU 221755Z AUTO 24007KT 10SM CLR 10/M14 A3038 RMK AO2 T01031137 10109 21056
KLVL - Lawrenceville, Virginia, USA
Distance from station: S 46mi, 75km
Updated: Sat, 22-Feb-2020 12:55pm EST
Clear
Clear
 Wind from S
Wind: S 9 mph , 15 km/h
Temperature: 46°F , 8°C
Wind Chill: 41°F , 5°C
Dew Point: 23°F , -5°C
Humidity: 40%
Barometer: 30.39 inHg , 1029.1 hPa
Clouds: Clear
Visibility: 10 miles , 16 km
2020/02/22 17:55 KLVL 221755Z AUTO 18008KT 10SM CLR 08/M05 A3039 RMK AO1 T00761051 10076 21076
 
KAKQ - Norfolk/Wakefld, Virginia, USA
Distance from station: SE 47mi, 75km
Updated: Sat, 22-Feb-2020 12:54pm EST
Clear
Clear
 Wind from varies
Wind: varies 6 mph , 9 km/h
Temperature: 46°F , 8°C
Wind Chill: 43°F , 6°C
Dew Point: 27°F , -3°C
Humidity: 46%
Barometer: 30.39 inHg , 1029.1 hPa
Clouds: Clear
Visibility: 10 miles , 16 km
2020/02/22 17:54 KAKQ 221754Z AUTO VRB05KT 10SM CLR 08/M03 A3039 RMK AO2 SLP294 T00831028 10083 21061 58023
KFYJ - West Point, Virginia, USA
Distance from station: E 48mi, 78km
Updated: Sat, 22-Feb-2020 12:55pm EST
Clear
Clear
 Wind from SW
Wind: SW 5 mph , 7 km/h
Temperature: 48°F , 9°C
Wind Chill: 46°F , 8°C
Dew Point: 19°F , -7°C
Humidity: 32%
Barometer: 30.39 inHg , 1029.1 hPa
Clouds: Clear
Visibility: 10 miles , 16 km
2020/02/22 17:55 KFYJ 221755Z AUTO 22004KT 10SM CLR 09/M07 A3039 RMK AO1 T00911074 10091 21073
 
KXSA - Tappahannock, Virginia, USA
Distance from station: NE 51mi, 82km
Updated: Sat, 22-Feb-2020 12:55pm EST
Clear
Clear
 Wind from SSW
Wind: SSW 7 mph , 11 km/h
Temperature: 50°F , 10°C
Wind Chill: 47°F , 8°C
Dew Point: 10°F , -12°C
Humidity: 20%
Barometer: 30.36 inHg , 1028.1 hPa
Clouds: Clear
Visibility: 10 miles , 16 km
2020/02/22 17:55 KXSA 221755Z AUTO 20006KT 10SM CLR 10/M12 A3036 RMK AO2 T01001119 10100 21080
KEMV - Emporia, Virginia, USA
Distance from station: S 52mi, 84km
Updated: Sat, 22-Feb-2020 1:15pm EST
Clear
Clear
 Wind from SSW
Wind: SSW 8 mph , 13 km/h
Temperature: 45°F , 7°C
Wind Chill: 41°F , 5°C
Dew Point: 25°F , -4°C
Humidity: 46%
Barometer: 30.41 inHg , 1029.8 hPa
Clouds: Clear
Visibility: 10 miles , 16 km
2020/02/22 18:15 KEMV 221815Z AUTO 21007KT 10SM CLR 07/M04 A3041 RMK AO2 T00681041
 
KJGG - Williamsburg, Virginia, USA
Distance from station: ESE 53mi, 85km
Updated: Sat, 22-Feb-2020 12:55pm EST
Clear
Clear
 Wind from S
Wind: S 8 mph , 13 km/h
Temperature: 48°F , 9°C
Wind Chill: 44°F , 7°C
Dew Point: 21°F , -6°C
Humidity: 34%
Barometer: 30.39 inHg , 1029.1 hPa
Clouds: Clear
Visibility: 10 miles , 16 km
2020/02/22 17:55 KJGG 221755Z AUTO 19007KT 10SM CLR 09/M06 A3039 RMK AO1
KAVC - South Hill/Meckl, Virginia, USA
Distance from station: SSW 56mi, 90km
Updated: Sat, 22-Feb-2020 12:55pm EST
Clear
Clear
 Wind from SSW
Wind: SSW 10 mph , 17 km/h, Gust: 16 mph , 26 km/h
Temperature: 46°F , 8°C
Wind Chill: 41°F , 5°C
Dew Point: 14°F , -10°C
Humidity: 27%
Barometer: 30.44 inHg , 1030.8 hPa
Clouds: Clear
Visibility: 10 miles , 16 km
2020/02/22 17:55 KAVC 221755Z AUTO 20009G14KT 10SM CLR 08/M10 A3044 RMK AO2 T00761097 10076 21080
 
KGVE - Gordonsville, Virginia, USA
Distance from station: NNW 58mi, 93km
Updated: Sat, 22-Feb-2020 12:55pm EST
Clear
Clear
 Wind from SSW
Wind: SSW 6 mph , 9 km/h
Temperature: 52°F , 11°C
Dew Point: 7°F , -14°C
Humidity: 16%
Barometer: 30.33 inHg , 1027.1 hPa
Clouds: Clear
Visibility: 10 miles , 16 km
2020/02/22 17:55 KGVE 221755Z AUTO 21005KT 10SM CLR 11/M14 A3033 RMK AO1 T01111136 10113 21074
KEZF - Fredericksb/Shan, Virginia, USA
Distance from station: N 59mi, 95km
Updated: Sat, 22-Feb-2020 12:55pm EST
Clear
Clear
 Wind from SW
Wind: SW 8 mph , 13 km/h, Gust: 16 mph , 26 km/h
Temperature: 52°F , 11°C
Dew Point: 16°F , -9°C
Humidity: 24%
Barometer: 30.34 inHg , 1027.4 hPa
Clouds: Clear
Visibility: 10 miles , 16 km
2020/02/22 17:55 KEZF 221755Z AUTO 22007G14KT 10SM CLR 11/M09 A3034 RMK AO2 T01131092 10114 21070